Time;durP1;ratioP1;P1;durP2;ratioP2;P2;SDS_P1;SDS_P2;PMS_P1;PMS_P2;Temp;Humidity;BMP_temperature;BMP_pressure;BME280_temperature;BME280_humidity;BME280_pressure;Samples;Min_cycle;Max_cycle;Signal;HPM_P1;HPM_P2
2022/09/23 00:00:14;;;;;;;23.70;14.40;;;;;;;8.54;81.56;99098.56;434186;1264;111030;-40
2022/09/23 00:10:41;;;;;;;22.70;14.40;;;;;;;8.43;81.56;99089.77;434520;1265;110622;-40
2022/09/23 00:20:50;;;;;;;26.50;17.60;;;;;;;8.26;81.53;99088.55;434274;1265;98156;-40
2022/09/23 00:30:57;;;;;;;25.20;16.80;;;;;;;7.96;81.54;99079.13;434134;1265;111275;-41
2022/09/23 00:41:04;;;;;;;25.90;16.30;;;;;;;7.71;81.49;99080.59;433959;1264;109090;-40
2022/09/23 01:01:26;;;;;;;26.20;14.20;;;;;;;7.18;81.46;99068.84;434142;1265;111659;-40
2022/09/23 01:11:42;;;;;;;29.20;18.40;;;;;;;7.00;81.81;99072.12;434308;1265;109038;-38
2022/09/23 01:21:49;;;;;;;33.80;19.50;;;;;;;6.95;81.93;99068.63;434065;1265;97480;-40
2022/09/23 01:32:03;;;;;;;22.80;14.60;;;;;;;6.76;81.60;99067.70;435438;1255;111027;-40
2022/09/23 01:42:08;;;;;;;18.50;13.80;;;;;;;6.62;81.78;99066.98;435102;1264;109139;-40
2022/09/23 01:52:21;;;;;;;18.70;13.30;;;;;;;6.58;81.74;99064.87;434965;1265;97490;-40
2022/09/23 02:02:27;;;;;;;25.40;16.30;;;;;;;6.31;81.63;99063.63;435020;1264;108814;-39
2022/09/23 02:12:39;;;;;;;27.10;16.60;;;;;;;6.24;82.18;99062.29;434695;1264;108835;-39
2022/09/23 02:22:43;;;;;;;21.80;13.40;;;;;;;6.12;81.99;99064.66;434938;1264;97606;-39
2022/09/23 02:32:49;;;;;;;19.30;11.90;;;;;;;5.95;81.79;99058.55;434812;1265;110081;-39
2022/09/23 02:42:56;;;;;;;20.20;13.60;;;;;;;5.84;81.80;99061.21;435129;1264;97499;-40
2022/09/23 02:53:04;;;;;;;31.00;17.80;;;;;;;5.85;81.98;99056.90;434611;1265;111137;-41
2022/09/23 03:03:17;;;;;;;32.40;17.20;;;;;;;5.56;81.84;99056.88;434916;1265;109394;-42
2022/09/23 03:13:27;;;;;;;21.20;14.80;;;;;;;5.37;81.92;99060.83;434525;1264;97461;-41
2022/09/23 03:23:39;;;;;;;19.90;13.70;;;;;;;5.28;81.94;99061.75;434865;1264;110172;-39
2022/09/23 03:33:52;;;;;;;22.70;12.70;;;;;;;5.26;81.88;99064.10;434902;1265;108653;-39
2022/09/23 03:44:01;;;;;;;29.60;17.40;;;;;;;5.18;82.08;99059.95;434942;1265;97904;-39
2022/09/23 03:54:06;;;;;;;30.90;19.80;;;;;;;5.09;82.32;99051.48;434944;1265;111136;-39
2022/09/23 04:04:13;;;;;;;26.30;16.00;;;;;;;5.02;82.30;99047.26;434458;1264;97889;-40
2022/09/23 04:14:22;;;;;;;27.40;14.90;;;;;;;5.00;82.19;99045.09;434729;1264;97916;-40
2022/09/23 04:24:28;;;;;;;22.60;15.00;;;;;;;5.01;82.32;99042.81;434954;1264;110143;-41
2022/09/23 04:34:35;;;;;;;28.30;19.10;;;;;;;4.94;82.23;99043.64;435070;1265;108859;-40
2022/09/23 04:44:42;;;;;;;35.40;21.10;;;;;;;4.82;82.38;99037.02;434808;1264;98141;-40
2022/09/23 04:54:49;;;;;;;33.80;18.10;;;;;;;4.80;82.46;99039.60;434889;1265;110102;-40
2022/09/23 05:04:57;;;;;;;21.40;16.30;;;;;;;4.93;82.42;99037.58;434557;1265;108783;-41
2022/09/23 05:15:04;;;;;;;24.10;17.20;;;;;;;5.21;82.65;99037.71;435291;1264;96624;-41
2022/09/23 05:25:12;;;;;;;31.40;20.90;;;;;;;5.97;83.20;99051.33;434951;1265;111132;-40
2022/09/23 05:35:16;;;;;;;39.30;22.90;;;;;;;6.64;83.22;99054.88;434539;1264;108888;-41
2022/09/23 05:45:24;;;;;;;29.60;21.30;;;;;;;7.47;83.27;99047.30;434949;1264;97495;-40
2022/09/23 05:55:32;;;;;;;42.30;28.70;;;;;;;8.46;83.36;99051.53;434999;1265;111028;-40
2022/09/23 06:05:40;;;;;;;29.10;23.00;;;;;;;9.62;82.73;99047.42;434750;1264;108859;-41
2022/09/23 06:15:47;;;;;;;31.70;21.20;;;;;;;10.70;82.18;99044.83;434757;1265;97881;-41
2022/09/23 06:25:59;;;;;;;35.00;23.00;;;;;;;12.06;82.16;99046.08;434553;1265;110041;-41
2022/09/23 06:36:04;;;;;;;22.60;16.50;;;;;;;13.17;81.51;99047.71;433851;1266;108824;-41
2022/09/23 06:46:15;;;;;;;22.00;15.20;;;;;;;13.34;79.49;99051.59;433876;1265;97491;-40
2022/09/23 06:56:23;;;;;;;17.10;12.60;;;;;;;12.35;78.90;99059.45;434283;1266;111177;-40
2022/09/23 07:06:31;;;;;;;18.60;11.70;;;;;;;12.20;78.70;99063.77;433988;1267;108865;-42
2022/09/23 07:16:38;;;;;;;15.20;9.90;;;;;;;11.88;78.89;99067.17;433861;1266;97486;-42
2022/09/23 07:26:45;;;;;;;22.20;12.50;;;;;;;12.16;78.82;99067.44;434040;1268;111327;-42
2022/09/23 07:36:55;;;;;;;18.90;13.30;;;;;;;12.15;78.99;99069.90;434559;1265;109018;-41
2022/09/23 07:47:02;;;;;;;18.80;11.70;;;;;;;12.55;79.17;99068.88;434793;1264;96984;-40
2022/09/23 07:57:09;;;;;;;16.40;10.10;;;;;;;12.86;78.77;99063.21;434602;1265;111176;-41
2022/09/23 08:07:17;;;;;;;7.00;5.10;;;;;;;13.11;78.14;99062.94;434451;1264;108912;-40
2022/09/23 08:17:25;;;;;;;2.20;1.90;;;;;;;13.77;77.57;99062.02;435271;1265;97973;-41
2022/09/23 08:27:32;;;;;;;5.00;3.00;;;;;;;14.29;76.63;99065.30;435045;1265;97472;-41
2022/09/23 08:37:39;;;;;;;6.20;4.00;;;;;;;14.61;76.10;99066.23;435097;1262;110083;-41
2022/09/23 08:47:47;;;;;;;7.00;3.70;;;;;;;14.54;74.57;99060.13;434893;1265;108805;-40
2022/09/23 08:57:58;;;;;;;7.20;3.60;;;;;;;14.40;73.36;99057.60;434962;1264;97466;-40
2022/09/23 09:08:30;;;;;;;4.90;3.00;;;;;;;14.53;73.43;99053.23;434843;1264;111282;-40
2022/09/23 09:18:43;;;;;;;4.40;2.40;;;;;;;14.82;72.67;99050.86;434536;1265;109034;-42
2022/09/23 09:28:50;;;;;;;2.40;2.00;;;;;;;15.18;72.06;99047.26;434730;1264;97531;-41
2022/09/23 09:38:58;;;;;;;3.30;1.80;;;;;;;14.84;70.09;99040.77;434904;1264;97957;-41
2022/09/23 09:49:14;;;;;;;2.70;2.20;;;;;;;14.83;67.90;99033.53;435019;1263;111105;-41
2022/09/23 09:59:27;;;;;;;6.30;1.70;;;;;;;15.21;68.00;99014.30;434965;1264;108768;-42
2022/09/23 10:09:32;;;;;;;0.80;0.80;;;;;;;15.48;66.68;99006.77;434798;1264;107500;-41
2022/09/23 10:19:44;;;;;;;1.80;1.30;;;;;;;16.02;66.11;98995.36;434887;1264;97477;-40
2022/09/23 10:29:51;;;;;;;2.60;1.50;;;;;;;16.06;65.10;98998.75;434766;1264;111170;-40
2022/09/23 11:00:33;;;;;;;1.60;1.10;;;;;;;15.28;65.61;98990.89;434910;1264;108923;-42
2022/09/23 11:11:00;;;;;;;0.40;0.40;;;;;;;15.47;64.74;98982.83;434347;1264;108572;-42
2022/09/23 11:21:09;;;;;;;1.50;0.70;;;;;;;15.65;63.99;98973.30;433377;1264;97871;-41
2022/09/23 11:31:24;;;;;;;0.90;0.90;;;;;;;16.08;63.05;98956.02;434939;1264;97882;-41
2022/09/23 11:41:34;;;;;;;1.20;1.00;;;;;;;16.41;62.81;98941.64;434789;1264;111241;-40
2022/09/23 11:51:40;;;;;;;1.20;1.10;;;;;;;16.40;61.99;98939.88;435133;1264;108826;-40
2022/09/23 12:01:53;;;;;;;2.10;1.60;;;;;;;15.86;61.08;98935.39;435033;1264;97508;-40
2022/09/23 12:12:11;;;;;;;3.70;2.00;;;;;;;15.09;61.68;98925.34;434804;1264;97871;-40
2022/09/23 12:22:22;;;;;;;1.40;1.30;;;;;;;15.16;61.98;98910.38;434161;1264;111203;-40
2022/09/23 12:32:29;;;;;;;2.10;1.70;;;;;;;15.25;60.81;98896.02;434854;1264;108829;-40
2022/09/23 12:42:42;;;;;;;1.60;1.50;;;;;;;15.34;60.09;98889.91;435178;1264;97486;-40
2022/09/23 12:52:50;;;;;;;1.90;1.20;;;;;;;15.45;59.76;98879.77;434240;1264;110221;-41
2022/09/23 13:33:43;;;;;;;1.60;0.80;;;;;;;15.58;58.72;98840.92;433954;1266;111177;-41
2022/09/23 13:54:03;;;;;;;2.20;0.90;;;;;;;15.34;59.24;98828.52;434050;1265;97620;-40
2022/09/23 14:04:22;;;;;;;2.00;1.00;;;;;;;15.37;58.84;98816.58;434237;1266;97734;-40
2022/09/23 14:14:31;;;;;;;1.20;1.00;;;;;;;15.45;58.79;98814.45;434011;1267;111132;-41
2022/09/23 14:24:39;;;;;;;2.50;1.10;;;;;;;15.59;58.74;98808.25;433911;1266;108801;-42
2022/09/23 14:34:44;;;;;;;19.60;9.30;;;;;;;15.51;58.40;98815.88;434131;1267;97966;-42
2022/09/23 14:44:49;;;;;;;21.20;8.80;;;;;;;15.04;58.81;98810.24;433927;1268;97542;-42
2022/09/23 14:54:55;;;;;;;30.10;14.00;;;;;;;14.49;59.03;98798.45;434056;1266;97789;-42
2022/09/23 15:05:22;;;;;;;28.20;12.50;;;;;;;14.05;59.50;98795.32;434283;1267;108807;-41
2022/09/23 15:15:29;;;;;;;24.30;12.40;;;;;;;13.89;60.22;98791.30;433974;1267;97457;-41
2022/09/23 15:25:41;;;;;;;11.40;4.70;;;;;;;13.96;60.25;98785.81;434104;1268;110229;-41
2022/09/23 15:35:49;;;;;;;4.50;3.40;;;;;;;14.08;59.87;98771.59;433742;1267;108840;-43
2022/09/23 15:46:04;;;;;;;4.50;2.50;;;;;;;14.08;60.08;98776.20;434285;1267;97522;-42
2022/09/23 15:56:12;;;;;;;2.60;1.90;;;;;;;13.85;60.29;98777.06;434138;1267;98045;-42
2022/09/23 16:06:19;;;;;;;2.10;1.80;;;;;;;13.47;60.37;98774.27;434022;1266;111143;-42
2022/09/23 16:16:26;;;;;;;3.50;2.50;;;;;;;13.08;60.92;98774.30;434398;1268;108665;-42
2022/09/23 16:26:38;;;;;;;3.00;2.20;;;;;;;12.55;61.41;98780.80;434239;1266;97887;-40
2022/09/23 16:36:46;;;;;;;3.10;2.40;;;;;;;12.01;62.57;98785.25;434300;1267;97551;-40
2022/09/23 16:46:54;;;;;;;4.90;2.80;;;;;;;11.50;63.21;98789.80;433913;1266;111119;-41
2022/09/23 16:57:01;;;;;;;14.00;5.30;;;;;;;11.07;64.05;98797.50;433670;1266;108777;-40
2022/09/23 17:07:09;;;;;;;22.90;8.20;;;;;;;10.72;64.95;98790.52;434075;1268;97880;-40
2022/09/23 17:17:15;;;;;;;11.00;6.50;;;;;;;10.33;65.67;98784.96;433814;1266;109507;-39
2022/09/23 17:27:23;;;;;;;13.30;7.50;;;;;;;9.89;66.32;98785.90;434006;1266;97448;-41
2022/09/23 17:37:30;;;;;;;13.30;6.80;;;;;;;9.55;67.01;98785.54;435111;1265;97464;-41
2022/09/23 17:47:38;;;;;;;19.10;8.50;;;;;;;9.31;67.60;98791.46;434669;1264;108872;-42
2022/09/23 17:57:51;;;;;;;26.60;11.90;;;;;;;9.09;68.10;98794.27;434749;1264;96589;-40
2022/09/23 18:07:59;;;;;;;23.40;13.60;;;;;;;8.94;68.82;98799.20;434631;1264;111217;-40
2022/09/23 18:18:11;;;;;;;25.60;15.50;;;;;;;8.77;69.29;98797.18;434753;1265;201748;-41
2022/09/23 18:28:18;;;;;;;26.30;15.10;;;;;;;8.43;69.63;98800.31;434831;1265;97554;-41
2022/09/23 18:38:26;;;;;;;27.00;16.10;;;;;;;8.18;69.95;98801.38;434990;1264;110767;-41
2022/09/23 18:59:00;;;;;;;47.20;27.70;;;;;;;8.06;71.02;98794.10;434887;1264;97811;-41
2022/09/23 19:09:08;;;;;;;54.40;34.30;;;;;;;8.03;71.45;98792.80;434952;1265;108899;-42
2022/09/23 19:19:15;;;;;;;59.50;36.10;;;;;;;7.90;71.51;98784.52;434770;1265;97506;-41
2022/09/23 19:29:24;;;;;;;52.50;34.50;;;;;;;7.69;71.73;98784.31;434984;1265;97478;-41
2022/09/23 19:39:33;;;;;;;58.10;37.40;;;;;;;7.61;72.17;98784.87;435097;1265;108964;-41
2022/09/23 19:49:40;;;;;;;97.10;58.70;;;;;;;7.63;72.60;98786.27;434893;1265;97871;-38
2022/09/23 20:09:54;;;;;;;139.80;76.90;;;;;;;7.58;73.16;98786.38;434868;1264;108787;-39
2022/09/23 20:20:02;;;;;;;136.20;78.70;;;;;;;7.55;73.65;98781.79;435077;1265;96648;-40
2022/09/23 20:30:11;;;;;;;118.10;68.80;;;;;;;7.54;73.67;98774.30;435110;1265;110880;-40
2022/09/23 20:40:21;;;;;;;122.10;68.20;;;;;;;7.54;73.82;98768.70;434872;1265;108699;-41
2022/09/23 20:50:29;;;;;;;110.20;65.70;;;;;;;7.49;73.96;98763.91;434825;1264;97509;-39
2022/09/23 21:00:36;;;;;;;137.40;77.40;;;;;;;7.44;74.20;98761.98;434857;1265;108954;-40
2022/09/23 21:10:45;;;;;;;133.40;77.80;;;;;;;7.31;74.54;98768.17;435023;1264;108830;-39
2022/09/23 21:20:59;;;;;;;121.30;69.60;;;;;;;7.17;74.59;98771.46;434743;1265;98506;-41
2022/09/23 21:31:09;;;;;;;111.40;63.20;;;;;;;7.16;75.01;98770.74;434848;1265;108759;-40
2022/09/23 21:51:26;;;;;;;98.80;57.70;;;;;;;7.61;75.71;98770.64;434812;1265;109693;-41
2022/09/23 22:42:44;;;;;;;67.40;37.20;;;;;;;8.03;76.27;98741.73;434557;1265;97477;-41
2022/09/23 22:52:52;;;;;;;82.70;48.30;;;;;;;8.05;76.27;98743.54;434464;1265;111573;-41
2022/09/23 23:02:59;;;;;;;80.10;45.00;;;;;;;8.06;76.58;98746.13;434208;1265;108714;-40
2022/09/23 23:13:07;;;;;;;85.30;46.00;;;;;;;8.12;76.65;98738.65;434842;1265;98554;-39
2022/09/23 23:23:14;;;;;;;77.20;43.00;;;;;;;8.14;76.70;98732.64;434960;1265;110042;-39
2022/09/23 23:33:21;;;;;;;63.90;37.10;;;;;;;8.16;76.73;98728.29;434817;1264;108489;-40
2022/09/23 23:43:29;;;;;;;58.80;35.90;;;;;;;8.21;76.59;98720.23;435050;1265;97868;-41
2022/09/23 23:53:38;;;;;;;55.20;32.80;;;;;;;8.18;76.81;98708.62;435109;1265;111119;-40
